createdAt,value
2017-01-12T00:00:26.279Z,6.01
2017-01-12T00:01:26.257Z,5.91
2017-01-12T00:02:26.235Z,5.93
2017-01-12T00:03:26.213Z,5.96
2017-01-12T00:04:26.201Z,5.92
2017-01-12T00:05:26.175Z,5.91
2017-01-12T00:06:26.156Z,5.88
2017-01-12T00:07:26.135Z,5.96
2017-01-12T00:08:26.119Z,5.98
2017-01-12T00:09:26.098Z,5.98
2017-01-12T00:10:26.080Z,6.03
2017-01-12T00:11:26.052Z,6.06
2017-01-12T00:12:26.039Z,6.07
2017-01-12T00:13:26.016Z,6.06
2017-01-12T00:14:25.997Z,6.06
2017-01-12T00:15:25.976Z,6.06
2017-01-12T00:16:25.960Z,6
2017-01-12T00:17:25.938Z,5.93
2017-01-12T00:18:25.918Z,5.88
2017-01-12T00:19:25.908Z,6.01
2017-01-12T00:20:25.879Z,5.95
2017-01-12T00:21:25.852Z,5.93
2017-01-12T00:22:25.835Z,5.85
2017-01-12T00:23:25.817Z,5.88
2017-01-12T00:24:25.801Z,5.98
2017-01-12T00:25:25.835Z,5.89
2017-01-12T00:26:25.763Z,5.95
2017-01-12T00:27:25.739Z,5.93
2017-01-12T00:28:25.720Z,6
2017-01-12T00:29:25.700Z,6.04
2017-01-12T00:30:25.680Z,5.88
2017-01-12T00:31:25.672Z,5.96
2017-01-12T00:32:25.638Z,5.93
2017-01-12T00:33:25.622Z,5.86
2017-01-12T00:34:25.617Z,6
2017-01-12T00:35:25.982Z,5.91
2017-01-12T00:36:25.666Z,5.91
2017-01-12T00:37:25.547Z,6.06
2017-01-12T00:38:25.576Z,6.01
2017-01-12T00:39:25.505Z,5.96
2017-01-12T00:40:25.484Z,5.96
2017-01-12T00:41:25.466Z,5.91
2017-01-12T00:42:25.442Z,5.98
2017-01-12T00:43:25.426Z,5.92
2017-01-12T00:44:25.410Z,5.88
2017-01-12T00:45:25.384Z,5.92
2017-01-12T00:46:25.372Z,5.91
2017-01-12T00:47:25.344Z,6.01
2017-01-12T00:48:25.327Z,5.88
2017-01-12T00:49:25.314Z,5.96
2017-01-12T00:50:25.286Z,5.93
2017-01-12T00:51:25.264Z,5.93
2017-01-12T00:52:25.249Z,5.93
2017-01-12T00:53:25.624Z,5.96
2017-01-12T00:54:25.212Z,6
2017-01-12T00:55:25.187Z,5.91
2017-01-12T00:56:25.169Z,5.89
2017-01-12T00:57:25.149Z,5.86
2017-01-12T00:58:25.127Z,5.89
2017-01-12T00:59:25.116Z,5.92
2017-01-12T01:00:25.089Z,5.93
2017-01-12T01:01:25.279Z,5.91
2017-01-12T01:02:25.073Z,5.75
2017-01-12T01:03:25.030Z,5.82
2017-01-12T01:04:25.008Z,5.68
2017-01-12T01:05:24.992Z,5.7
2017-01-12T01:06:24.970Z,5.78
2017-01-12T01:07:24.952Z,5.78
2017-01-12T01:08:24.937Z,5.82
2017-01-12T01:09:25.308Z,5.64
2017-01-12T01:10:24.899Z,5.66
2017-01-12T01:11:24.873Z,5.77
2017-01-12T01:12:25.247Z,5.75
2017-01-12T01:13:24.830Z,5.71
2017-01-12T01:14:24.841Z,5.64
2017-01-12T01:15:24.788Z,5.63
2017-01-12T01:16:24.770Z,5.57
2017-01-12T01:17:24.755Z,5.6
2017-01-12T01:18:24.728Z,5.49
2017-01-12T01:19:24.714Z,5.55
2017-01-12T01:20:24.696Z,5.57
2017-01-12T01:21:24.671Z,5.41
2017-01-12T01:22:24.650Z,5.43
2017-01-12T01:23:24.667Z,5.45
2017-01-12T01:24:24.611Z,5.4
2017-01-12T01:25:24.989Z,5.31
2017-01-12T01:26:24.571Z,5.37
2017-01-12T01:27:24.552Z,5.35
2017-01-12T01:28:24.532Z,5.32
2017-01-12T01:29:24.508Z,5.41
2017-01-12T01:30:24.489Z,5.38
2017-01-12T01:31:24.469Z,5.34
2017-01-12T01:32:24.450Z,5.3
2017-01-12T01:33:24.426Z,5.3
2017-01-12T01:34:24.409Z,5.35
2017-01-12T01:35:24.390Z,5.31
2017-01-12T01:36:24.389Z,5.3
2017-01-12T01:37:24.348Z,5.3
2017-01-12T01:38:24.330Z,5.28
2017-01-12T01:39:24.309Z,5.32
2017-01-12T01:40:24.285Z,5.27
2017-01-12T01:41:24.268Z,5.27
2017-01-12T01:42:24.243Z,5.22
2017-01-12T01:43:24.225Z,5.22
2017-01-12T01:44:24.208Z,5.14
2017-01-12T01:45:24.184Z,5.17
2017-01-12T01:46:24.164Z,5.2
2017-01-12T01:47:24.148Z,5.17
2017-01-12T01:48:24.128Z,5.25
2017-01-12T01:49:24.106Z,5.17
2017-01-12T01:50:24.084Z,5.13
2017-01-12T01:51:24.061Z,5.3
2017-01-12T01:52:24.043Z,5.28
2017-01-12T01:53:24.021Z,5.17
2017-01-12T01:54:24.014Z,5.16
2017-01-12T01:55:23.986Z,5.2
2017-01-12T01:56:23.968Z,5.17
2017-01-12T01:57:23.945Z,5.12
2017-01-12T01:58:23.923Z,5.14
2017-01-12T01:59:23.906Z,5.1
2017-01-12T02:00:23.886Z,5.09
2017-01-12T02:01:23.859Z,5.07
2017-01-12T02:02:23.846Z,5.07
2017-01-12T02:03:23.822Z,5.05
2017-01-12T02:04:23.799Z,4.92
2017-01-12T02:05:23.778Z,4.94
2017-01-12T02:06:23.771Z,5.02
2017-01-12T02:07:23.739Z,5.02
2017-01-12T02:08:23.722Z,4.98
2017-01-12T02:09:23.726Z,5.16
2017-01-12T02:10:23.681Z,5.04
2017-01-12T02:11:23.658Z,5.02
2017-01-12T02:12:23.644Z,4.98
2017-01-12T02:13:23.642Z,4.98
2017-01-12T02:14:23.594Z,4.92
2017-01-12T02:15:23.577Z,4.98
2017-01-12T02:16:23.555Z,4.99
2017-01-12T02:17:23.940Z,5.09
2017-01-12T02:18:23.515Z,5.05
2017-01-12T02:19:23.493Z,4.98
2017-01-12T02:20:23.476Z,4.99
2017-01-12T02:21:23.455Z,5.04
2017-01-12T02:22:23.433Z,5.13
2017-01-12T02:23:23.412Z,5.16
2017-01-12T02:24:23.389Z,5.19
2017-01-12T02:25:23.371Z,5.19
2017-01-12T02:26:23.352Z,5.12
2017-01-12T02:27:23.325Z,5.16
2017-01-12T02:28:23.309Z,5.14
2017-01-12T02:29:23.288Z,5.13
2017-01-12T02:30:23.266Z,5.13
2017-01-12T02:31:23.250Z,5.13
2017-01-12T02:32:23.226Z,5.14
2017-01-12T02:33:23.209Z,5.14
2017-01-12T02:34:23.186Z,5.19
2017-01-12T02:35:23.169Z,5.27
2017-01-12T02:36:23.149Z,5.23
2017-01-12T02:37:23.125Z,5.22
2017-01-12T02:38:23.104Z,5.3
2017-01-12T02:39:23.086Z,5.19
2017-01-12T02:40:23.063Z,5.23
2017-01-12T02:41:23.046Z,5.19
2017-01-12T02:42:23.025Z,5.23
2017-01-12T02:43:23.008Z,5.17
2017-01-12T02:44:22.983Z,5.23
2017-01-12T02:45:22.964Z,5.13
2017-01-12T02:46:22.943Z,5.14
2017-01-12T02:47:22.937Z,5.14
2017-01-12T02:48:22.907Z,5.25
2017-01-12T02:49:22.887Z,5.2
2017-01-12T02:50:22.863Z,5.31
2017-01-12T02:51:22.844Z,5.31
2017-01-12T02:52:22.824Z,5.43
2017-01-12T02:53:22.804Z,5.31
2017-01-12T02:54:22.782Z,5.35
2017-01-12T02:55:22.760Z,5.32
2017-01-12T02:56:22.743Z,5.4
2017-01-12T02:57:22.723Z,5.46
2017-01-12T02:58:22.699Z,5.46
2017-01-12T02:59:22.702Z,5.49
2017-01-12T03:00:22.663Z,5.57
2017-01-12T03:01:22.843Z,5.5
2017-01-12T03:02:23.014Z,5.55
2017-01-12T03:03:22.597Z,5.48
2017-01-12T03:04:22.576Z,5.48
2017-01-12T03:05:22.559Z,5.55
2017-01-12T03:06:22.542Z,5.57
2017-01-12T03:07:22.535Z,5.49
2017-01-12T03:08:22.498Z,5.57
2017-01-12T03:09:22.481Z,5.6
2017-01-12T03:10:22.457Z,5.56
2017-01-12T03:11:22.438Z,5.6
2017-01-12T03:12:22.443Z,5.6
2017-01-12T03:13:22.402Z,5.55
2017-01-12T03:14:22.380Z,5.66
2017-01-12T03:15:22.360Z,5.64
2017-01-12T03:16:22.344Z,5.73
2017-01-12T03:17:22.370Z,5.71
2017-01-12T03:18:22.301Z,5.74
2017-01-12T03:19:22.286Z,5.67
2017-01-12T03:20:22.264Z,5.64
2017-01-12T03:21:22.248Z,5.63
2017-01-12T03:22:22.216Z,5.67
2017-01-12T03:23:22.196Z,5.67
2017-01-12T03:24:22.174Z,5.64
2017-01-12T03:25:22.156Z,5.71
2017-01-12T03:26:22.136Z,5.64
2017-01-12T03:27:22.117Z,5.7
2017-01-12T03:28:22.097Z,5.68
2017-01-12T03:29:22.076Z,5.66
2017-01-12T03:30:22.056Z,5.68
2017-01-12T03:31:22.036Z,5.7
2017-01-12T03:32:22.243Z,5.75
2017-01-12T03:33:21.999Z,5.71
2017-01-12T03:34:21.979Z,5.71
2017-01-12T03:35:21.954Z,5.71
2017-01-12T03:36:21.938Z,5.68
2017-01-12T03:37:21.919Z,5.74
2017-01-12T03:38:21.897Z,5.63
2017-01-12T03:39:22.275Z,5.67
2017-01-12T03:40:21.851Z,5.67
2017-01-12T03:41:21.837Z,5.66
2017-01-12T03:42:21.819Z,5.6
2017-01-12T03:43:21.797Z,5.59
2017-01-12T03:44:21.777Z,5.68
2017-01-12T03:45:21.764Z,5.75
2017-01-12T03:46:21.748Z,5.78
2017-01-12T03:47:21.718Z,5.78
2017-01-12T03:48:22.101Z,5.81
2017-01-12T03:49:22.074Z,5.81
2017-01-12T03:50:21.664Z,5.74
2017-01-12T03:51:21.677Z,5.77
2017-01-12T03:52:21.667Z,5.77
2017-01-12T03:53:21.595Z,5.74
2017-01-12T03:54:21.573Z,5.68
2017-01-12T03:55:21.954Z,5.73
2017-01-12T03:56:21.537Z,5.7
2017-01-12T03:57:21.520Z,5.7
2017-01-12T03:58:21.496Z,5.75
2017-01-12T03:59:21.493Z,5.7
2017-01-12T04:00:21.461Z,5.63
2017-01-12T04:01:21.441Z,5.74
2017-01-12T04:02:21.421Z,5.74
2017-01-12T04:03:21.398Z,5.68
2017-01-12T04:04:21.375Z,5.68
2017-01-12T04:05:21.360Z,5.64
2017-01-12T04:06:21.345Z,5.66
2017-01-12T04:07:21.318Z,5.67
2017-01-12T04:08:21.307Z,5.6
2017-01-12T04:09:21.290Z,5.66
2017-01-12T04:10:21.259Z,5.67
2017-01-12T04:11:21.238Z,5.59
2017-01-12T04:12:21.225Z,5.63
2017-01-12T04:13:21.200Z,5.67
2017-01-12T04:14:21.581Z,5.68
2017-01-12T04:15:21.161Z,5.63
2017-01-12T04:16:21.144Z,5.67
2017-01-12T04:17:21.126Z,5.63
2017-01-12T04:18:21.109Z,5.82
2017-01-12T04:19:21.089Z,5.67
2017-01-12T04:20:21.075Z,5.71
2017-01-12T04:21:21.039Z,5.78
2017-01-12T04:22:21.025Z,5.75
2017-01-12T04:23:21.011Z,5.83
2017-01-12T04:24:20.981Z,5.75
2017-01-12T04:25:20.964Z,5.77
2017-01-12T04:26:20.942Z,5.77
2017-01-12T04:27:20.928Z,5.71
2017-01-12T04:28:20.902Z,5.74
2017-01-12T04:29:20.886Z,5.83
2017-01-12T04:30:20.864Z,5.77
2017-01-12T04:31:20.845Z,5.71
2017-01-12T04:32:20.870Z,5.73
2017-01-12T04:33:20.805Z,5.74
2017-01-12T04:34:20.831Z,5.74
2017-01-12T04:35:20.763Z,5.64
2017-01-12T04:36:20.797Z,5.66
2017-01-12T04:37:20.729Z,5.74
2017-01-12T04:38:20.705Z,5.71
2017-01-12T04:39:20.684Z,5.68
2017-01-12T04:40:20.660Z,5.67
2017-01-12T04:41:20.647Z,5.6
2017-01-12T04:42:20.632Z,5.7
2017-01-12T04:43:20.605Z,5.56
2017-01-12T04:44:20.584Z,5.57
2017-01-12T04:45:20.567Z,5.6
2017-01-12T04:46:20.548Z,5.66
2017-01-12T04:47:20.526Z,5.64
2017-01-12T04:48:20.537Z,5.57
2017-01-12T04:49:20.490Z,5.59
2017-01-12T04:50:20.468Z,5.59
2017-01-12T04:51:20.446Z,5.55
2017-01-12T04:52:20.479Z,5.55
2017-01-12T04:53:20.408Z,5.59
2017-01-12T04:54:20.435Z,5.64
2017-01-12T04:55:20.369Z,5.57
2017-01-12T04:56:20.348Z,5.57
2017-01-12T04:57:20.330Z,5.59
2017-01-12T04:58:20.306Z,5.55
2017-01-12T04:59:20.285Z,5.59
2017-01-12T05:00:20.265Z,5.63
2017-01-12T05:01:20.448Z,5.55
2017-01-12T05:02:20.224Z,5.56
2017-01-12T05:03:20.208Z,5.56
2017-01-12T05:04:20.184Z,5.55
2017-01-12T05:05:20.165Z,5.6
2017-01-12T05:06:20.153Z,5.57
2017-01-12T05:07:20.126Z,5.59
2017-01-12T05:08:20.102Z,5.59
2017-01-12T05:09:20.099Z,5.64
2017-01-12T05:10:20.065Z,5.55
2017-01-12T05:11:20.052Z,5.57
2017-01-12T05:12:20.023Z,5.57
2017-01-12T05:13:20.007Z,5.59
2017-01-12T05:14:19.988Z,5.53
2017-01-12T05:15:19.970Z,5.57
2017-01-12T05:16:19.959Z,5.53
2017-01-12T05:17:19.928Z,5.55
2017-01-12T05:18:19.911Z,5.59
2017-01-12T05:19:19.889Z,5.55
2017-01-12T05:20:19.867Z,5.57
2017-01-12T05:21:19.845Z,5.55
2017-01-12T05:22:19.866Z,5.64
2017-01-12T05:23:19.809Z,5.57
2017-01-12T05:24:19.786Z,5.53
2017-01-12T05:25:19.770Z,5.6
2017-01-12T05:26:19.749Z,5.59
2017-01-12T05:27:19.725Z,5.43
2017-01-12T05:28:19.711Z,5.5
2017-01-12T05:29:19.687Z,5.46
2017-01-12T05:30:19.669Z,5.45
2017-01-12T05:31:19.647Z,5.55
2017-01-12T05:32:19.633Z,5.5
2017-01-12T05:33:19.606Z,5.46
2017-01-12T05:34:19.588Z,5.5
2017-01-12T05:35:19.568Z,5.52
2017-01-12T05:36:19.549Z,5.49
2017-01-12T05:37:19.532Z,5.55
2017-01-12T05:38:19.512Z,5.49
2017-01-12T05:39:19.486Z,5.49
2017-01-12T05:40:19.466Z,5.45
2017-01-12T05:41:19.446Z,5.41
2017-01-12T05:42:19.437Z,5.43
2017-01-12T05:43:19.411Z,5.46
2017-01-12T05:44:19.391Z,5.45
2017-01-12T05:45:19.368Z,5.48
2017-01-12T05:46:19.348Z,5.43
2017-01-12T05:47:19.329Z,5.48
2017-01-12T05:48:19.314Z,5.4
2017-01-12T05:49:19.288Z,5.48
2017-01-12T05:50:19.268Z,5.41
2017-01-12T05:51:19.250Z,5.52
2017-01-12T05:52:19.252Z,5.46
2017-01-12T05:53:19.224Z,5.43
2017-01-12T05:54:19.187Z,5.49
2017-01-12T05:55:19.229Z,5.48
2017-01-12T05:56:19.213Z,5.46
2017-01-12T05:57:19.123Z,5.45
2017-01-12T05:58:19.106Z,5.41
2017-01-12T05:59:19.085Z,5.4
2017-01-12T06:00:19.071Z,5.37
2017-01-12T06:01:19.441Z,5.32
2017-01-12T06:02:19.025Z,5.34
2017-01-12T06:03:19.024Z,5.3
2017-01-12T06:04:19.006Z,5.32
2017-01-12T06:05:18.969Z,5.34
2017-01-12T06:06:18.948Z,5.32
2017-01-12T06:07:18.925Z,5.32
2017-01-12T06:08:18.908Z,5.32
2017-01-12T06:09:18.888Z,5.4
2017-01-12T06:10:18.861Z,5.31
2017-01-12T06:11:18.885Z,5.25
2017-01-12T06:12:18.825Z,5.27
2017-01-12T06:13:18.801Z,5.27
2017-01-12T06:14:18.782Z,5.34
2017-01-12T06:15:18.764Z,5.22
2017-01-12T06:16:18.742Z,5.27
2017-01-12T06:17:18.775Z,5.28
2017-01-12T06:18:18.697Z,5.31
2017-01-12T06:19:19.096Z,5.28
2017-01-12T06:20:18.665Z,5.34
2017-01-12T06:21:18.641Z,5.28
2017-01-12T06:22:18.624Z,5.25
2017-01-12T06:23:18.599Z,5.25
2017-01-12T06:24:18.580Z,5.25
2017-01-12T06:25:18.560Z,5.32
2017-01-12T06:26:18.542Z,5.28
2017-01-12T06:27:18.519Z,5.19
2017-01-12T06:28:18.501Z,5.22
2017-01-12T06:29:18.480Z,5.23
2017-01-12T06:30:18.453Z,5.16
2017-01-12T06:31:18.441Z,5.2
2017-01-12T06:32:18.417Z,5.16
2017-01-12T06:33:18.428Z,5.13
2017-01-12T06:34:18.382Z,5.1
2017-01-12T06:35:18.365Z,5.09
2017-01-12T06:36:18.735Z,5.12
2017-01-12T06:37:18.316Z,5.04
2017-01-12T06:38:18.299Z,5.12
2017-01-12T06:39:18.283Z,5.07
2017-01-12T06:40:18.254Z,5.04
2017-01-12T06:41:18.632Z,5.04
2017-01-12T06:42:18.215Z,5.12
2017-01-12T06:43:18.194Z,5.09
2017-01-12T06:44:18.173Z,5.07
2017-01-12T06:45:18.155Z,5.09
2017-01-12T06:46:18.128Z,5.09
2017-01-12T06:47:18.112Z,5.1
2017-01-12T06:48:18.090Z,5.13
2017-01-12T06:49:18.071Z,5.14
2017-01-12T06:50:18.047Z,5.13
2017-01-12T06:51:18.030Z,5.16
2017-01-12T06:52:18.010Z,5.16
2017-01-12T06:53:17.998Z,5.22
2017-01-12T06:54:17.997Z,5.13
2017-01-12T06:55:18.343Z,5.16
2017-01-12T06:56:17.928Z,5.14
2017-01-12T06:57:17.924Z,5.14
2017-01-12T06:58:17.889Z,5.14
2017-01-12T06:59:17.861Z,5.2
2017-01-12T07:00:18.246Z,5.23
2017-01-12T07:01:18.031Z,5.31
2017-01-12T07:02:17.803Z,5.27
2017-01-12T07:03:17.794Z,5.23
2017-01-12T07:04:17.767Z,5.23
2017-01-12T07:05:17.745Z,5.27
2017-01-12T07:06:17.729Z,5.25
2017-01-12T07:07:17.752Z,5.27
2017-01-12T07:08:17.692Z,5.27
2017-01-12T07:09:17.662Z,5.19
2017-01-12T07:10:17.643Z,5.25
2017-01-12T07:11:17.618Z,5.27
2017-01-12T07:12:17.602Z,5.28
2017-01-12T07:13:17.577Z,5.37
2017-01-12T07:14:17.969Z,5.23
2017-01-12T07:15:17.536Z,5.32
2017-01-12T07:16:17.518Z,5.34
2017-01-12T07:17:17.497Z,5.31
2017-01-12T07:18:17.477Z,5.3
2017-01-12T07:19:17.467Z,5.32
2017-01-12T07:20:17.443Z,5.27
2017-01-12T07:21:17.420Z,5.32
2017-01-12T07:22:17.399Z,5.32
2017-01-12T07:23:17.382Z,5.34
2017-01-12T07:24:17.363Z,5.3
2017-01-12T07:25:17.343Z,5.31
2017-01-12T07:26:17.317Z,5.37
2017-01-12T07:27:17.302Z,5.43
2017-01-12T07:28:17.286Z,5.34
2017-01-12T07:29:17.257Z,5.38
2017-01-12T07:30:17.237Z,5.31
2017-01-12T07:31:17.217Z,5.31
2017-01-12T07:32:17.200Z,5.32
2017-01-12T07:33:17.170Z,5.34
2017-01-12T07:34:17.155Z,5.32
2017-01-12T07:35:17.145Z,5.32
2017-01-12T07:36:17.118Z,5.41
2017-01-12T07:37:17.096Z,5.48
2017-01-12T07:38:17.074Z,5.43
2017-01-12T07:39:17.059Z,5.46
2017-01-12T07:40:17.036Z,5.49
2017-01-12T07:41:17.013Z,5.41
2017-01-12T07:42:16.991Z,5.46
2017-01-12T07:43:16.973Z,5.45
2017-01-12T07:44:16.956Z,5.46
2017-01-12T07:45:17.330Z,5.38
2017-01-12T07:46:16.913Z,5.43
2017-01-12T07:47:16.897Z,5.37
2017-01-12T07:48:16.875Z,5.37
2017-01-12T07:49:16.861Z,5.31
2017-01-12T07:50:16.836Z,5.34
2017-01-12T07:51:16.815Z,5.34
2017-01-12T07:52:16.802Z,5.32
2017-01-12T07:53:16.776Z,5.31
2017-01-12T07:54:16.756Z,5.28
2017-01-12T07:55:16.734Z,5.27
2017-01-12T07:56:16.718Z,5.28
2017-01-12T07:57:16.693Z,5.31
2017-01-12T07:58:16.675Z,5.25
2017-01-12T07:59:16.657Z,5.27
2017-01-12T08:00:16.637Z,5.27
2017-01-12T08:01:16.615Z,5.2
2017-01-12T08:02:16.592Z,5.25
2017-01-12T08:03:16.576Z,5.35
2017-01-12T08:04:16.558Z,5.25
2017-01-12T08:05:16.535Z,5.28
2017-01-12T08:06:16.520Z,5.27
2017-01-12T08:07:16.494Z,5.14
2017-01-12T08:08:16.477Z,5.13
2017-01-12T08:09:16.462Z,5.13
2017-01-12T08:10:16.465Z,5.17
2017-01-12T08:11:16.411Z,5.19
2017-01-12T08:12:16.403Z,5.2
2017-01-12T08:13:16.370Z,5.14
2017-01-12T08:14:16.372Z,5.17
2017-01-12T08:15:16.329Z,5.13
2017-01-12T08:16:16.326Z,5.14
2017-01-12T08:17:16.288Z,5.09
2017-01-12T08:18:16.323Z,5.14
2017-01-12T08:19:16.248Z,5.2
2017-01-12T08:20:16.226Z,5.27
2017-01-12T08:21:16.233Z,5.23
2017-01-12T08:22:16.190Z,5.28
2017-01-12T08:23:16.168Z,5.27
2017-01-12T08:24:16.157Z,5.27
2017-01-12T08:25:16.130Z,5.25
2017-01-12T08:26:16.111Z,5.25
2017-01-12T08:27:16.116Z,5.22
2017-01-12T08:28:16.069Z,5.2
2017-01-12T08:29:16.047Z,5.23
2017-01-12T08:30:16.027Z,5.23
2017-01-12T08:31:16.007Z,5.32
2017-01-12T08:32:15.984Z,5.37
2017-01-12T08:33:15.967Z,5.27
2017-01-12T08:34:16.340Z,5.28
2017-01-12T08:35:15.934Z,5.34
2017-01-12T08:36:15.905Z,5.34
2017-01-12T08:37:15.888Z,5.34
2017-01-12T08:38:15.876Z,5.32
2017-01-12T08:39:15.855Z,5.27
2017-01-12T08:40:15.838Z,5.35
2017-01-12T08:41:15.811Z,5.35
2017-01-12T08:42:16.188Z,5.3
2017-01-12T08:43:15.772Z,5.37
2017-01-12T08:44:15.749Z,5.46
2017-01-12T08:45:15.728Z,5.48
2017-01-12T08:46:15.711Z,5.41
2017-01-12T08:47:15.689Z,5.46
2017-01-12T08:48:15.671Z,5.48
2017-01-12T08:49:15.654Z,5.41
2017-01-12T08:50:15.630Z,5.45
2017-01-12T08:51:15.611Z,5.48
2017-01-12T08:52:15.612Z,5.5
2017-01-12T08:53:15.571Z,5.56
2017-01-12T08:54:15.550Z,5.67
2017-01-12T08:55:15.532Z,5.63
2017-01-12T08:56:15.509Z,5.66
2017-01-12T08:57:15.488Z,5.7
2017-01-12T08:58:15.471Z,5.78
2017-01-12T08:59:15.452Z,5.71
2017-01-12T09:00:15.434Z,5.75
2017-01-12T09:01:15.409Z,5.75
2017-01-12T09:02:15.397Z,5.85
2017-01-12T09:03:15.374Z,5.82
2017-01-12T09:04:15.347Z,5.85
2017-01-12T09:05:15.335Z,5.82
2017-01-12T09:06:15.313Z,5.89
2017-01-12T09:07:15.293Z,5.86
2017-01-12T09:08:15.269Z,5.81
2017-01-12T09:09:15.260Z,5.92
2017-01-12T09:10:15.233Z,5.89
2017-01-12T09:11:15.211Z,5.95
2017-01-12T09:12:15.192Z,6.09
2017-01-12T09:13:15.191Z,5.93
2017-01-12T09:14:15.159Z,5.98
2017-01-12T09:15:15.135Z,5.96
2017-01-12T09:16:15.117Z,6.07
2017-01-12T09:17:15.099Z,6.07
2017-01-12T09:18:15.488Z,6
2017-01-12T09:19:15.059Z,6.09
2017-01-12T09:20:15.047Z,6.07
2017-01-12T09:21:15.029Z,6.09
2017-01-12T09:22:14.999Z,6.06
2017-01-12T09:23:15.389Z,6.06
2017-01-12T09:24:14.970Z,6.04
2017-01-12T09:25:14.947Z,6.09
2017-01-12T09:26:14.927Z,6.1
2017-01-12T09:27:14.910Z,6.07
2017-01-12T09:28:14.897Z,6.11
2017-01-12T09:29:14.888Z,6.1
2017-01-12T09:30:14.849Z,6.11
2017-01-12T09:31:14.836Z,6.11
2017-01-12T09:32:14.808Z,6.07
2017-01-12T09:33:14.794Z,6.07
2017-01-12T09:34:14.773Z,6.07
2017-01-12T09:35:14.754Z,6.09
2017-01-12T09:36:14.740Z,6.09
2017-01-12T09:37:14.716Z,6.13
2017-01-12T09:38:14.696Z,6.07
2017-01-12T09:39:14.678Z,6.03
2017-01-12T09:40:14.665Z,6.09
2017-01-12T09:41:14.640Z,6.07
2017-01-12T09:42:14.637Z,6.09
2017-01-12T09:43:14.605Z,6.1
2017-01-12T09:44:14.586Z,6.1
2017-01-12T09:45:14.569Z,6.09
2017-01-12T09:46:14.558Z,6.09
2017-01-12T09:47:14.565Z,6.09
2017-01-12T09:48:14.508Z,6.07
2017-01-12T09:49:14.494Z,6.14
2017-01-12T09:50:14.471Z,6.07
2017-01-12T09:51:14.451Z,6.21
2017-01-12T09:52:14.449Z,6.09
2017-01-12T09:53:14.425Z,6.21
2017-01-12T09:54:14.402Z,6.33
2017-01-12T09:55:14.378Z,6.32
2017-01-12T09:56:14.368Z,6.29
2017-01-12T09:57:14.340Z,6.28
2017-01-12T09:58:14.323Z,6.26
2017-01-12T09:59:14.301Z,6.3
2017-01-12T10:00:14.311Z,6.28
2017-01-12T10:01:14.665Z,6.3
2017-01-12T10:02:14.274Z,6.3
2017-01-12T10:03:14.237Z,6.3
2017-01-12T10:04:14.213Z,6.33
2017-01-12T10:05:14.188Z,6.22
2017-01-12T10:06:14.174Z,6.28
2017-01-12T10:07:14.565Z,6.3
2017-01-12T10:08:14.151Z,6.29
2017-01-12T10:09:14.132Z,6.44
2017-01-12T10:10:14.495Z,6.5
2017-01-12T10:11:14.083Z,6.46
2017-01-12T10:12:14.062Z,6.5
2017-01-12T10:13:14.043Z,6.3
2017-01-12T10:14:14.022Z,6.46
2017-01-12T10:15:14.009Z,6.5
2017-01-12T10:16:13.992Z,6.4
2017-01-12T10:17:13.967Z,6.53
2017-01-12T10:18:13.946Z,6.51
2017-01-12T10:19:13.934Z,6.54
2017-01-12T10:20:13.913Z,6.53
2017-01-12T10:21:13.898Z,6.51
2017-01-12T10:22:13.880Z,6.63
2017-01-12T10:23:13.859Z,6.58
2017-01-12T10:24:13.841Z,6.68
2017-01-12T10:25:13.824Z,6.77
2017-01-12T10:26:13.806Z,6.8
2017-01-12T10:27:13.787Z,6.84
2017-01-12T10:28:13.770Z,6.77
2017-01-12T10:29:13.747Z,6.73
2017-01-12T10:30:13.735Z,6.83
2017-01-12T10:31:13.712Z,6.89
2017-01-12T10:32:13.697Z,6.83
2017-01-12T10:33:13.678Z,6.79
2017-01-12T10:34:13.660Z,6.86
2017-01-12T10:35:14.049Z,6.86
2017-01-12T10:36:13.622Z,6.84
2017-01-12T10:37:13.610Z,6.81
2017-01-12T10:38:13.624Z,6.89
2017-01-12T10:39:13.568Z,6.84
2017-01-12T10:40:13.547Z,6.86
2017-01-12T10:41:13.533Z,6.84
2017-01-12T10:42:13.514Z,6.83
2017-01-12T10:43:13.497Z,6.79
2017-01-12T10:44:13.481Z,6.81
2017-01-12T10:45:13.459Z,6.86
2017-01-12T10:46:13.440Z,6.77
2017-01-12T10:47:13.424Z,6.79
2017-01-12T10:48:13.408Z,6.73
2017-01-12T10:49:13.390Z,6.83
2017-01-12T10:50:13.778Z,6.72
2017-01-12T10:51:13.354Z,6.76
2017-01-12T10:52:13.335Z,6.9
2017-01-12T10:53:13.318Z,6.99
2017-01-12T10:54:13.294Z,6.95
2017-01-12T10:55:13.279Z,6.97
2017-01-12T10:56:13.268Z,6.98
2017-01-12T10:57:13.246Z,6.91
2017-01-12T10:58:13.231Z,6.95
2017-01-12T10:59:13.210Z,6.98
2017-01-12T11:00:13.193Z,6.89
2017-01-12T11:01:13.573Z,7.01
2017-01-12T11:02:13.358Z,6.95
2017-01-12T11:03:13.134Z,6.99
2017-01-12T11:04:13.121Z,6.98
2017-01-12T11:05:13.106Z,6.9
2017-01-12T11:06:13.081Z,6.9
2017-01-12T11:07:13.069Z,6.86
2017-01-12T11:08:13.050Z,6.86
2017-01-12T11:09:13.426Z,6.87
2017-01-12T11:10:13.009Z,6.87
2017-01-12T11:11:12.994Z,6.86
2017-01-12T11:12:12.981Z,6.87
2017-01-12T11:13:12.961Z,7.02
2017-01-12T11:14:12.941Z,6.9
2017-01-12T11:15:12.924Z,6.95
2017-01-12T11:16:12.908Z,6.99
2017-01-12T11:17:12.886Z,6.99
2017-01-12T11:18:13.263Z,7.2
2017-01-12T11:19:12.854Z,7.32
2017-01-12T11:20:12.836Z,7.47
2017-01-12T11:21:12.821Z,7.41
2017-01-12T11:22:12.805Z,7.26
2017-01-12T11:23:12.832Z,7.08
2017-01-12T11:24:12.769Z,7.15
2017-01-12T11:25:12.750Z,7.05
2017-01-12T11:26:12.744Z,7.05
2017-01-12T11:27:12.712Z,7.08
2017-01-12T11:28:12.698Z,7.2
2017-01-12T11:29:12.679Z,7.34
2017-01-12T11:30:13.057Z,7.67
2017-01-12T11:31:12.644Z,7.89
2017-01-12T11:32:12.631Z,8.04
2017-01-12T11:33:12.610Z,8.03
2017-01-12T11:34:12.985Z,8
2017-01-12T11:35:12.574Z,7.94
2017-01-12T11:36:12.559Z,8.08
2017-01-12T11:37:12.544Z,8.2
2017-01-12T11:38:12.523Z,7.94
2017-01-12T11:39:12.507Z,8
2017-01-12T11:40:12.496Z,7.93
2017-01-12T11:41:12.505Z,7.94
2017-01-12T11:42:12.459Z,7.84
2017-01-12T11:43:12.449Z,7.89
2017-01-12T11:44:12.427Z,7.89
2017-01-12T11:45:12.412Z,7.81
2017-01-12T11:46:12.405Z,7.78
2017-01-12T11:47:12.388Z,7.87
2017-01-12T11:48:12.362Z,7.84
2017-01-12T11:49:12.353Z,7.75
2017-01-12T11:50:12.332Z,7.72
2017-01-12T11:51:12.315Z,7.59
2017-01-12T11:52:12.305Z,7.58
2017-01-12T11:53:12.280Z,7.47
2017-01-12T11:54:12.267Z,7.49
2017-01-12T11:55:12.644Z,7.35
2017-01-12T11:56:12.227Z,7.34
2017-01-12T11:57:12.213Z,7.24
2017-01-12T11:58:12.206Z,7.32
2017-01-12T11:59:12.185Z,7.35
2017-01-12T12:00:12.176Z,7.27
2017-01-12T12:01:12.149Z,7.31
2017-01-12T12:02:12.128Z,7.31
2017-01-12T12:03:12.121Z,7.29
2017-01-12T12:04:12.096Z,7.27
2017-01-12T12:05:12.079Z,7.37
2017-01-12T12:06:12.471Z,7.34
2017-01-12T12:07:12.043Z,7.34
2017-01-12T12:08:12.033Z,7.24
2017-01-12T12:09:12.411Z,7.27
2017-01-12T12:10:11.992Z,7.24
2017-01-12T12:11:12.021Z,7.24
2017-01-12T12:12:11.965Z,7.29
2017-01-12T12:13:11.949Z,7.24
2017-01-12T12:14:11.927Z,7.2
2017-01-12T12:15:11.906Z,7.22
2017-01-12T12:16:11.894Z,7.27
2017-01-12T12:17:11.877Z,7.27
2017-01-12T12:18:11.863Z,7.34
2017-01-12T12:19:11.838Z,7.29
2017-01-12T12:20:11.832Z,7.34
2017-01-12T12:21:11.816Z,7.35
2017-01-12T12:22:11.791Z,7.53
2017-01-12T12:23:11.773Z,7.59
2017-01-12T12:24:11.754Z,7.6
2017-01-12T12:25:11.741Z,7.37
2017-01-12T12:26:11.725Z,7.4
2017-01-12T12:27:11.706Z,7.56
2017-01-12T12:28:11.687Z,7.66
2017-01-12T12:29:11.672Z,7.67
2017-01-12T12:30:11.657Z,7.67
2017-01-12T12:31:11.639Z,7.78
2017-01-12T12:32:11.627Z,8.07
2017-01-12T12:33:11.607Z,8.03
2017-01-12T12:34:11.989Z,8.15
2017-01-12T12:35:11.577Z,8.2
2017-01-12T12:36:11.559Z,8.17
2017-01-12T12:37:11.542Z,8.28
2017-01-12T12:38:11.536Z,8.32
2017-01-12T12:39:11.522Z,8.33
2017-01-12T12:40:11.497Z,8.5
2017-01-12T12:41:11.478Z,8.39
2017-01-12T12:42:11.476Z,8.39
2017-01-12T12:43:11.510Z,8.4
2017-01-12T12:44:11.481Z,8.22
2017-01-12T12:45:11.425Z,8.33
2017-01-12T12:46:11.405Z,8.35
2017-01-12T12:47:11.392Z,8.6
2017-01-12T12:48:11.376Z,8.71
2017-01-12T12:49:11.367Z,8.81
2017-01-12T12:50:11.342Z,8.73
2017-01-12T12:51:11.328Z,8.75
2017-01-12T12:52:11.322Z,8.55
2017-01-12T12:53:11.310Z,8.29
2017-01-12T12:54:11.295Z,8.22
2017-01-12T12:55:11.274Z,8.25
2017-01-12T12:56:11.262Z,8.32
2017-01-12T12:57:11.250Z,8.32
2017-01-12T12:58:11.233Z,8.37
2017-01-12T12:59:11.216Z,8.42
2017-01-12T13:00:11.203Z,8.18
2017-01-12T13:01:11.223Z,8.36
2017-01-12T13:02:11.385Z,8.5
2017-01-12T13:03:11.160Z,8.35
2017-01-12T13:04:11.145Z,8.17
2017-01-12T13:05:11.553Z,8.03
2017-01-12T13:06:11.120Z,7.94
2017-01-12T13:07:11.102Z,7.94
2017-01-12T13:08:11.084Z,7.79
2017-01-12T13:09:11.474Z,7.74
2017-01-12T13:10:11.056Z,7.62
2017-01-12T13:11:11.046Z,7.63
2017-01-12T13:12:11.037Z,7.58
2017-01-12T13:13:11.012Z,7.56
2017-01-12T13:14:10.999Z,7.52
2017-01-12T13:15:10.989Z,7.53
2017-01-12T13:16:10.967Z,7.53
2017-01-12T13:17:10.982Z,7.53
2017-01-12T13:18:10.943Z,7.55
2017-01-12T13:19:10.929Z,7.53
2017-01-12T13:20:10.904Z,7.53
2017-01-12T13:21:10.892Z,7.49